createdAt,value
2019-04-27T00:00:00.180Z,99.90
2019-04-27T00:02:47.689Z,99.90
2019-04-27T00:05:36.921Z,99.90
2019-04-27T00:08:39.136Z,99.90
2019-04-27T00:11:19.157Z,99.90
2019-04-27T00:13:49.522Z,99.90
2019-04-27T00:16:40.405Z,99.90
2019-04-27T00:19:43.763Z,99.90
2019-04-27T00:22:44.972Z,99.90
2019-04-27T00:25:15.344Z,99.90
2019-04-27T00:27:45.732Z,99.90
2019-04-27T00:30:16.299Z,99.90
2019-04-27T00:32:46.560Z,99.90
2019-04-27T00:35:23.450Z,99.90
2019-04-27T00:38:15.804Z,99.90
2019-04-27T00:40:53.777Z,99.90
2019-04-27T00:43:24.171Z,99.90
2019-04-27T00:45:54.453Z,99.90
2019-04-27T00:48:24.734Z,99.90
2019-04-27T00:50:54.941Z,99.90
2019-04-27T00:53:25.169Z,99.90
2019-04-27T00:56:16.863Z,99.90
2019-04-27T00:59:00.406Z,99.90
2019-04-27T01:01:34.392Z,99.90
2019-04-27T01:04:08.857Z,99.90
2019-04-27T01:06:39.111Z,99.90
2019-04-27T01:09:13.423Z,99.90
2019-04-27T01:11:43.720Z,99.90
2019-04-27T01:14:13.977Z,99.90
2019-04-27T01:16:44.219Z,99.90
2019-04-27T01:19:14.508Z,99.90
2019-04-27T01:21:44.707Z,99.90
2019-04-27T01:24:14.977Z,99.90
2019-04-27T01:26:56.043Z,99.90
2019-04-27T01:29:27.016Z,99.90
2019-04-27T01:31:58.834Z,99.90
2019-04-27T01:34:29.585Z,99.90
2019-04-27T01:36:59.916Z,99.90
2019-04-27T01:39:30.197Z,99.90
2019-04-27T01:42:03.273Z,99.90
2019-04-27T01:44:33.461Z,99.90
2019-04-27T01:47:03.757Z,99.90
2019-04-27T01:49:34.019Z,99.90
2019-04-27T01:52:04.320Z,99.90
2019-04-27T01:54:34.750Z,99.90
2019-04-27T01:57:05.301Z,99.90
2019-04-27T01:59:35.569Z,99.90
2019-04-27T02:02:40.057Z,99.90
2019-04-27T02:05:19.677Z,99.90
2019-04-27T02:07:49.866Z,99.90
2019-04-27T02:10:20.177Z,99.90
2019-04-27T02:12:50.465Z,99.90
2019-04-27T02:15:20.898Z,99.90
2019-04-27T02:17:51.173Z,99.90
2019-04-27T02:20:21.351Z,99.90
2019-04-27T02:22:51.607Z,99.90
2019-04-27T02:25:21.825Z,99.90
2019-04-27T02:27:57.159Z,99.90
2019-04-27T02:30:43.947Z,99.90
2019-04-27T02:33:33.166Z,99.90
2019-04-27T02:36:03.540Z,99.90
2019-04-27T02:38:33.831Z,99.90
2019-04-27T02:41:04.676Z,99.90
2019-04-27T02:44:01.837Z,99.90
2019-04-27T02:46:31.935Z,99.90
2019-04-27T02:49:06.285Z,99.90
2019-04-27T02:51:43.229Z,99.90
2019-04-27T02:54:13.425Z,99.90
2019-04-27T02:56:43.709Z,99.90
2019-04-27T02:59:13.980Z,99.90
2019-04-27T03:02:06.312Z,99.90
2019-04-27T03:04:36.555Z,99.90
2019-04-27T03:07:06.861Z,99.90
2019-04-27T03:09:39.435Z,99.90
2019-04-27T03:12:10.229Z,99.90
2019-04-27T03:15:02.430Z,99.90
2019-04-27T03:17:54.475Z,99.90
2019-04-27T03:20:45.184Z,99.90
2019-04-27T03:23:15.538Z,99.90
2019-04-27T03:25:54.760Z,99.90
2019-04-27T03:28:25.355Z,99.90
2019-04-27T03:30:55.609Z,99.90
2019-04-27T03:33:25.885Z,99.90
2019-04-27T03:35:56.228Z,99.90
2019-04-27T03:38:26.521Z,99.90
2019-04-27T03:40:56.738Z,99.90
2019-04-27T03:43:26.923Z,99.90
2019-04-27T03:46:00.207Z,99.90
2019-04-27T03:48:29.633Z,99.90
2019-04-27T03:51:29.925Z,99.90
2019-04-27T03:54:33.821Z,99.90
2019-04-27T03:57:40.153Z,99.90
2019-04-27T04:00:19.992Z,99.90
2019-04-27T04:02:50.461Z,99.90
2019-04-27T04:05:20.738Z,99.90
2019-04-27T04:07:50.934Z,99.90
2019-04-27T04:10:21.279Z,99.90
2019-04-27T04:12:57.362Z,99.90
2019-04-27T04:15:43.170Z,99.90
2019-04-27T04:18:13.534Z,99.90
2019-04-27T04:20:43.736Z,99.90
2019-04-27T04:23:14.011Z,99.90
2019-04-27T04:25:44.189Z,99.90
2019-04-27T04:28:14.395Z,99.90
2019-04-27T04:30:44.582Z,99.90
2019-04-27T04:33:14.762Z,99.90
2019-04-27T04:35:45.022Z,99.90
2019-04-27T04:38:15.206Z,99.90
2019-04-27T04:40:51.672Z,99.90
2019-04-27T04:43:29.501Z,99.90
2019-04-27T04:46:19.513Z,99.90
2019-04-27T04:48:50.350Z,99.90
2019-04-27T04:51:20.726Z,99.90
2019-04-27T04:53:51.854Z,99.90
2019-04-27T04:56:22.266Z,99.90
2019-04-27T04:58:52.517Z,99.90
2019-04-27T05:01:22.798Z,99.90
2019-04-27T05:03:53.082Z,99.90
2019-04-27T05:06:25.501Z,99.90
2019-04-27T05:08:55.255Z,99.90
2019-04-27T05:11:25.431Z,99.90
2019-04-27T05:13:55.679Z,99.90
2019-04-27T05:16:25.877Z,99.90
2019-04-27T05:18:56.165Z,99.90
2019-04-27T05:21:31.941Z,99.90
2019-04-27T05:24:02.956Z,99.90
2019-04-27T05:26:33.207Z,99.90
2019-04-27T05:29:04.198Z,99.90
2019-04-27T05:31:34.446Z,99.90
2019-04-27T05:34:06.754Z,99.90
2019-04-27T05:36:36.660Z,99.90
2019-04-27T05:39:07.567Z,99.90
2019-04-27T05:41:39.319Z,99.90
2019-04-27T05:44:28.715Z,99.90
2019-04-27T05:47:16.613Z,99.90
2019-04-27T05:49:55.043Z,99.80
2019-04-27T05:52:29.370Z,99.90
2019-04-27T05:55:00.174Z,99.80
2019-04-27T05:57:31.407Z,99.60
2019-04-27T06:00:02.682Z,99.20
2019-04-27T06:02:33.100Z,99.50
2019-04-27T06:05:03.367Z,99.30
2019-04-27T06:07:33.757Z,99.50
2019-04-27T06:10:04.494Z,98.90
2019-04-27T06:12:34.807Z,98.70
2019-04-27T06:15:05.844Z,98.60
2019-04-27T06:17:36.008Z,98.60
2019-04-27T06:20:06.724Z,98.20
2019-04-27T06:22:38.897Z,98.40
2019-04-27T06:25:11.666Z,98.50
2019-04-27T06:27:41.013Z,98.20
2019-04-27T06:30:11.427Z,98.20
2019-04-27T06:32:41.604Z,98.60
2019-04-27T06:35:12.413Z,98.20
2019-04-27T06:37:42.752Z,97.70
2019-04-27T06:40:12.948Z,97.20
2019-04-27T06:42:43.162Z,96.90
2019-04-27T06:45:13.508Z,96.40
2019-04-27T06:47:43.709Z,95.80
2019-04-27T06:50:14.000Z,94.80
2019-04-27T06:52:44.214Z,94.50
2019-04-27T06:55:14.578Z,93.70
2019-04-27T06:57:44.756Z,93.90
2019-04-27T07:00:15.273Z,94.00
2019-04-27T07:02:45.457Z,93.80
2019-04-27T07:05:15.755Z,93.70
2019-04-27T07:07:46.015Z,93.40
2019-04-27T07:10:16.355Z,93.10
2019-04-27T07:12:48.874Z,92.80
2019-04-27T07:15:20.398Z,92.80
2019-04-27T07:17:50.828Z,92.30
2019-04-27T07:20:21.050Z,91.80
2019-04-27T07:22:51.318Z,91.70
2019-04-27T07:25:21.527Z,91.30
2019-04-27T07:27:51.769Z,91.20
2019-04-27T07:30:22.083Z,91.30
2019-04-27T07:32:52.975Z,91.20
2019-04-27T07:35:23.322Z,91.40
2019-04-27T07:37:53.668Z,91.70
2019-04-27T07:40:23.920Z,92.30
2019-04-27T07:42:59.637Z,92.70
2019-04-27T07:45:34.102Z,92.90
2019-04-27T07:48:04.307Z,92.40
2019-04-27T07:50:34.684Z,92.70
2019-04-27T07:53:05.000Z,92.80
2019-04-27T07:55:35.265Z,93.00
2019-04-27T07:58:05.485Z,93.00
2019-04-27T08:00:35.770Z,93.50
2019-04-27T08:03:06.043Z,93.20
2019-04-27T08:05:36.331Z,94.00
2019-04-27T08:08:06.630Z,94.20
2019-04-27T08:10:36.877Z,94.20
2019-04-27T08:13:07.187Z,94.30
2019-04-27T08:15:37.372Z,94.40
2019-04-27T08:18:08.987Z,94.80
2019-04-27T08:20:39.381Z,94.70
2019-04-27T08:23:09.714Z,94.50
2019-04-27T08:25:40.293Z,94.60
2019-04-27T08:28:35.553Z,94.50
2019-04-27T08:31:28.709Z,94.10
2019-04-27T08:34:00.076Z,94.20
2019-04-27T08:36:30.561Z,94.50
2019-04-27T08:39:00.748Z,94.50
2019-04-27T08:41:31.009Z,94.30
2019-04-27T08:44:01.321Z,93.90
2019-04-27T08:46:31.610Z,93.50
2019-04-27T08:49:01.949Z,93.70
2019-04-27T08:51:32.298Z,93.80
2019-04-27T08:54:02.628Z,93.90
2019-04-27T08:56:32.908Z,94.00
2019-04-27T08:59:03.112Z,93.90
2019-04-27T09:01:33.389Z,94.10
2019-04-27T09:04:03.715Z,94.40
2019-04-27T09:06:37.459Z,94.80
2019-04-27T09:09:12.721Z,95.10
2019-04-27T09:12:01.951Z,95.30
2019-04-27T09:14:40.799Z,96.20
2019-04-27T09:17:27.373Z,96.80
2019-04-27T09:20:09.462Z,97.50
2019-04-27T09:22:39.889Z,97.90
2019-04-27T09:25:10.176Z,97.80
2019-04-27T09:27:40.473Z,98.10
2019-04-27T09:30:10.870Z,98.70
2019-04-27T09:32:41.166Z,98.00
2019-04-27T09:35:11.729Z,97.50
2019-04-27T09:37:42.030Z,97.40
2019-04-27T09:40:12.285Z,97.50
2019-04-27T09:42:42.593Z,97.30
2019-04-27T09:45:13.037Z,97.80
2019-04-27T09:47:43.304Z,98.20
2019-04-27T09:50:13.722Z,97.80
2019-04-27T09:52:45.834Z,98.20
2019-04-27T09:55:16.309Z,98.40
2019-04-27T09:57:46.623Z,99.10
2019-04-27T10:00:17.269Z,99.90
2019-04-27T10:02:47.583Z,99.90
2019-04-27T10:05:17.916Z,99.90
2019-04-27T10:07:48.210Z,99.90
2019-04-27T10:10:18.921Z,99.90
2019-04-27T10:12:50.273Z,99.90
2019-04-27T10:15:20.567Z,99.90
2019-04-27T10:17:50.797Z,99.40
2019-04-27T10:20:21.097Z,99.60
2019-04-27T10:22:51.441Z,99.70
2019-04-27T10:25:26.127Z,99.90
2019-04-27T10:27:59.208Z,99.90
2019-04-27T10:30:30.390Z,99.90
2019-04-27T10:33:00.694Z,99.90
2019-04-27T10:35:31.011Z,99.90
2019-04-27T10:38:01.387Z,99.90
2019-04-27T10:40:31.747Z,99.90
2019-04-27T10:43:02.005Z,99.90
2019-04-27T10:45:32.318Z,99.90
2019-04-27T10:48:02.614Z,99.90
2019-04-27T10:50:32.931Z,99.90
2019-04-27T10:53:03.203Z,99.90
2019-04-27T10:55:33.637Z,99.50
2019-04-27T10:58:04.173Z,99.50
2019-04-27T11:00:39.633Z,99.30
2019-04-27T11:03:10.021Z,98.80
2019-04-27T11:06:02.514Z,98.20
2019-04-27T11:08:32.818Z,98.20
2019-04-27T11:11:03.103Z,97.90
2019-04-27T11:13:33.387Z,98.30
2019-04-27T11:16:03.922Z,98.00
2019-04-27T11:18:35.983Z,97.70
2019-04-27T11:21:06.128Z,98.00
2019-04-27T11:23:36.447Z,97.70
2019-04-27T11:26:07.657Z,97.40
2019-04-27T11:28:37.991Z,97.40
2019-04-27T11:31:08.566Z,96.70
2019-04-27T11:33:38.853Z,96.60
2019-04-27T11:36:26.514Z,96.50
2019-04-27T11:38:57.748Z,96.30
2019-04-27T11:41:28.084Z,96.10
2019-04-27T11:43:58.342Z,95.50
2019-04-27T11:46:28.752Z,95.90
2019-04-27T11:48:59.086Z,95.70
2019-04-27T11:51:29.314Z,95.50
2019-04-27T11:53:59.591Z,95.60
2019-04-27T11:56:29.817Z,95.80
2019-04-27T11:59:03.140Z,94.90
2019-04-27T12:01:33.439Z,94.50
2019-04-27T12:04:03.634Z,94.80
2019-04-27T12:06:35.448Z,94.10
2019-04-27T12:09:06.989Z,94.90
2019-04-27T12:11:37.307Z,94.20
2019-04-27T12:14:07.485Z,94.10
2019-04-27T12:16:37.754Z,94.50
2019-04-27T12:19:07.984Z,94.80
2019-04-27T12:21:38.249Z,93.70
2019-04-27T12:24:08.520Z,94.10
2019-04-27T12:26:57.440Z,93.20
2019-04-27T12:29:47.315Z,93.00
2019-04-27T12:32:17.829Z,93.40
2019-04-27T12:34:48.093Z,93.40
2019-04-27T12:37:18.421Z,93.40
2019-04-27T12:39:48.718Z,93.50
2019-04-27T12:42:21.054Z,93.60
2019-04-27T12:44:50.909Z,93.70
2019-04-27T12:47:21.203Z,93.50
2019-04-27T12:49:51.503Z,92.90
2019-04-27T12:52:22.877Z,93.30
2019-04-27T12:55:30.341Z,93.20
2019-04-27T12:58:13.017Z,93.70
2019-04-27T13:00:45.687Z,94.10
2019-04-27T13:03:16.144Z,94.10
2019-04-27T13:05:46.329Z,94.10
2019-04-27T13:08:16.605Z,93.60
2019-04-27T13:10:46.799Z,93.40
2019-04-27T13:13:17.111Z,93.60
2019-04-27T13:15:47.403Z,93.70
2019-04-27T13:18:17.605Z,93.60
2019-04-27T13:20:47.921Z,93.90
2019-04-27T13:23:18.149Z,93.40
2019-04-27T13:25:48.473Z,93.00
2019-04-27T13:28:18.761Z,93.10
2019-04-27T13:30:49.061Z,92.40
2019-04-27T13:33:19.328Z,92.50
2019-04-27T13:35:49.615Z,93.00
2019-04-27T13:38:19.886Z,93.10
2019-04-27T13:41:06.626Z,93.00
2019-04-27T13:43:37.747Z,93.20
2019-04-27T13:46:18.597Z,92.60
2019-04-27T13:49:06.336Z,92.70
2019-04-27T13:51:44.496Z,93.40
2019-04-27T13:54:23.679Z,93.40
2019-04-27T13:56:47.684Z,93.60
2019-04-27T13:59:18.138Z,93.80
2019-04-27T14:01:48.395Z,93.30
2019-04-27T14:04:18.710Z,93.40
2019-04-27T14:06:49.236Z,92.80
2019-04-27T14:09:19.590Z,93.20
2019-04-27T14:11:51.090Z,93.50
2019-04-27T14:14:21.376Z,93.20
2019-04-27T14:16:51.651Z,92.50
2019-04-27T14:19:21.952Z,92.40
2019-04-27T14:21:52.240Z,92.50
2019-04-27T14:24:29.864Z,92.90
2019-04-27T14:26:57.140Z,93.20
2019-04-27T14:29:27.451Z,93.30
2019-04-27T14:31:58.691Z,93.30
2019-04-27T14:34:29.068Z,93.40
2019-04-27T14:36:59.349Z,94.00
2019-04-27T14:39:29.708Z,93.90
2019-04-27T14:41:59.953Z,94.00
2019-04-27T14:44:30.298Z,95.00
2019-04-27T14:47:00.604Z,96.50
2019-04-27T14:49:30.932Z,97.80
2019-04-27T14:52:01.154Z,99.00
2019-04-27T14:54:45.184Z,99.70
2019-04-27T14:57:03.821Z,99.90
2019-04-27T14:59:34.222Z,99.90
2019-04-27T15:02:05.084Z,99.90
2019-04-27T15:04:37.618Z,99.90
2019-04-27T15:07:07.391Z,99.90
2019-04-27T15:09:38.085Z,99.90
2019-04-27T15:12:08.328Z,99.90
2019-04-27T15:14:38.872Z,99.90
2019-04-27T15:17:10.416Z,99.90
2019-04-27T15:19:48.426Z,99.90
2019-04-27T15:22:26.319Z,99.90
2019-04-27T15:25:09.406Z,99.90
2019-04-27T15:27:37.418Z,99.90
2019-04-27T15:30:11.135Z,99.90
2019-04-27T15:33:02.343Z,99.70
2019-04-27T15:35:43.986Z,99.90
2019-04-27T15:38:18.711Z,99.90
2019-04-27T15:41:11.211Z,99.10
2019-04-27T15:43:42.483Z,99.90
2019-04-27T15:46:12.802Z,99.90
2019-04-27T15:48:43.152Z,99.90
2019-04-27T15:51:17.437Z,99.40
2019-04-27T15:53:50.823Z,99.20
2019-04-27T15:56:21.613Z,99.30
2019-04-27T15:58:51.149Z,99.80
2019-04-27T16:01:21.433Z,98.60
2019-04-27T16:03:52.215Z,98.00
2019-04-27T16:06:22.545Z,98.00
2019-04-27T16:08:52.815Z,97.10
2019-04-27T16:11:23.177Z,96.20
2019-04-27T16:13:53.459Z,96.50
2019-04-27T16:16:24.499Z,96.10
2019-04-27T16:18:57.685Z,96.20
2019-04-27T16:21:28.508Z,96.00
2019-04-27T16:23:59.919Z,96.20
2019-04-27T16:26:30.100Z,96.20
2019-04-27T16:29:00.332Z,95.50
2019-04-27T16:31:32.903Z,95.90
2019-04-27T16:34:02.939Z,95.50
2019-04-27T16:36:33.317Z,95.40
2019-04-27T16:39:08.296Z,95.10
2019-04-27T16:41:38.912Z,94.90
2019-04-27T16:44:11.028Z,95.30
2019-04-27T16:46:42.896Z,95.20
2019-04-27T16:49:15.095Z,95.20
2019-04-27T16:51:45.652Z,94.70
2019-04-27T16:54:17.718Z,95.10
2019-04-27T16:56:53.401Z,95.00
2019-04-27T16:59:39.091Z,93.40
2019-04-27T17:01:52.203Z,94.40
2019-04-27T17:04:22.497Z,93.10
2019-04-27T17:06:52.804Z,93.10
2019-04-27T17:09:23.147Z,93.00
2019-04-27T17:11:53.621Z,92.50
2019-04-27T17:14:41.985Z,93.20
2019-04-27T17:17:24.002Z,93.30
2019-04-27T17:19:58.179Z,93.20
2019-04-27T17:22:28.798Z,93.40
2019-04-27T17:24:59.106Z,93.30
2019-04-27T17:27:38.270Z,93.40
2019-04-27T17:30:09.197Z,92.70
2019-04-27T17:32:48.718Z,93.00
2019-04-27T17:35:18.418Z,92.90
2019-04-27T17:37:48.962Z,93.00
2019-04-27T17:40:19.417Z,94.00
2019-04-27T17:42:49.752Z,93.90
2019-04-27T17:45:21.686Z,92.50
2019-04-27T17:47:52.018Z,93.50
2019-04-27T17:50:24.931Z,92.70
2019-04-27T17:52:55.253Z,93.20
2019-04-27T17:55:27.839Z,93.80
2019-04-27T17:58:00.495Z,94.50
2019-04-27T18:00:32.889Z,95.40
2019-04-27T18:03:02.344Z,96.90
2019-04-27T18:05:32.639Z,98.30
2019-04-27T18:08:02.933Z,98.80
2019-04-27T18:10:33.284Z,98.90
2019-04-27T18:13:03.650Z,99.20
2019-04-27T18:15:33.929Z,99.30
2019-04-27T18:18:13.334Z,99.10
2019-04-27T18:20:43.651Z,99.30
2019-04-27T18:23:18.500Z,98.80
2019-04-27T18:25:54.721Z,99.00
2019-04-27T18:28:28.387Z,98.90
2019-04-27T18:31:06.493Z,98.60
2019-04-27T18:33:37.472Z,98.90
2019-04-27T18:36:13.700Z,99.10
2019-04-27T18:38:40.490Z,99.50
2019-04-27T18:41:11.896Z,99.40
2019-04-27T18:43:50.623Z,98.90
2019-04-27T18:46:14.794Z,99.00
2019-04-27T18:49:05.308Z,99.00
2019-04-27T18:52:04.343Z,98.90
2019-04-27T18:54:37.287Z,98.90
2019-04-27T18:57:05.044Z,99.10
2019-04-27T18:59:38.056Z,99.70
2019-04-27T19:02:08.629Z,99.70
2019-04-27T19:04:38.819Z,99.90
2019-04-27T19:07:09.117Z,99.90
2019-04-27T19:09:39.418Z,99.90
2019-04-27T19:12:09.732Z,99.90
2019-04-27T19:14:40.065Z,99.90
2019-04-27T19:17:10.474Z,99.90
2019-04-27T19:19:40.764Z,99.90
2019-04-27T19:22:11.110Z,99.90
2019-04-27T19:24:41.378Z,99.90
2019-04-27T19:27:27.934Z,99.90
2019-04-27T19:30:02.037Z,99.90
2019-04-27T19:32:32.340Z,99.90
2019-04-27T19:35:02.698Z,99.90
2019-04-27T19:37:33.008Z,99.90
2019-04-27T19:40:03.268Z,99.90
2019-04-27T19:42:33.597Z,99.90
2019-04-27T19:45:03.916Z,99.90
2019-04-27T19:47:34.210Z,99.90
2019-04-27T19:50:04.881Z,99.90
2019-04-27T19:52:35.145Z,99.90
2019-04-27T19:55:05.390Z,99.90
2019-04-27T19:57:39.187Z,99.90
2019-04-27T20:00:13.753Z,99.90
2019-04-27T20:02:44.073Z,99.90
2019-04-27T20:05:16.493Z,99.90
2019-04-27T20:07:48.223Z,99.90
2019-04-27T20:10:20.271Z,99.90
2019-04-27T20:12:50.965Z,99.90
2019-04-27T20:15:21.401Z,99.90
2019-04-27T20:17:51.688Z,99.90
2019-04-27T20:20:21.950Z,99.90
2019-04-27T20:22:52.553Z,99.90
2019-04-27T20:25:22.876Z,99.90
2019-04-27T20:27:53.186Z,99.90
2019-04-27T20:30:23.493Z,99.90
2019-04-27T20:32:53.806Z,99.90
2019-04-27T20:35:24.113Z,99.90
2019-04-27T20:37:54.389Z,99.90
2019-04-27T20:40:24.870Z,99.90
2019-04-27T20:42:55.121Z,99.90
2019-04-27T20:45:25.452Z,99.90
2019-04-27T20:47:55.726Z,99.90
2019-04-27T20:50:25.990Z,99.90
2019-04-27T20:52:57.470Z,99.90
2019-04-27T20:55:27.702Z,99.90
2019-04-27T20:58:02.336Z,99.90
2019-04-27T21:00:31.801Z,99.90
2019-04-27T21:03:11.904Z,99.90
2019-04-27T21:06:01.044Z,99.90
2019-04-27T21:08:33.237Z,99.90
2019-04-27T21:11:03.573Z,99.90
2019-04-27T21:13:33.922Z,99.90
2019-04-27T21:16:04.285Z,99.90
2019-04-27T21:18:34.602Z,99.90
2019-04-27T21:21:04.854Z,99.90
2019-04-27T21:23:35.142Z,99.90
2019-04-27T21:26:05.469Z,99.90
2019-04-27T21:28:35.745Z,99.90
2019-04-27T21:31:06.136Z,99.90
2019-04-27T21:33:36.468Z,99.90
2019-04-27T21:36:06.942Z,99.90
2019-04-27T21:38:37.145Z,99.90
2019-04-27T21:41:07.382Z,99.90
2019-04-27T21:43:37.665Z,99.90
2019-04-27T21:46:08.029Z,99.90
2019-04-27T21:48:38.476Z,99.90
2019-04-27T21:51:08.791Z,99.90
2019-04-27T21:53:45.765Z,99.90
2019-04-27T21:56:16.122Z,99.90
2019-04-27T21:58:46.455Z,99.90
2019-04-27T22:01:41.930Z,99.90
2019-04-27T22:04:12.354Z,99.90
2019-04-27T22:06:42.796Z,99.90
2019-04-27T22:09:15.058Z,99.90
2019-04-27T22:11:45.392Z,99.90
2019-04-27T22:14:15.753Z,99.90
2019-04-27T22:16:45.988Z,99.90
2019-04-27T22:19:16.276Z,99.90
2019-04-27T22:21:46.567Z,99.90
2019-04-27T22:24:22.265Z,99.90
2019-04-27T22:26:52.551Z,99.90
2019-04-27T22:29:22.816Z,99.90
2019-04-27T22:31:53.137Z,99.90
2019-04-27T22:34:23.547Z,99.90
2019-04-27T22:36:53.844Z,99.90
2019-04-27T22:39:32.326Z,99.90
2019-04-27T22:42:20.666Z,99.90
2019-04-27T22:44:56.424Z,99.90
2019-04-27T22:47:26.775Z,99.90
2019-04-27T22:49:56.961Z,99.90
2019-04-27T22:52:27.309Z,99.90
2019-04-27T22:54:57.617Z,99.90
2019-04-27T22:57:36.976Z,99.90
2019-04-27T23:00:19.005Z,99.90
2019-04-27T23:02:52.720Z,99.90
2019-04-27T23:05:23.022Z,99.90
2019-04-27T23:07:53.330Z,99.90
2019-04-27T23:10:25.468Z,99.90
2019-04-27T23:12:55.548Z,99.90
2019-04-27T23:15:32.371Z,99.90
2019-04-27T23:18:02.745Z,99.90
2019-04-27T23:20:33.374Z,99.90
2019-04-27T23:23:03.625Z,99.90
2019-04-27T23:25:33.808Z,99.90
2019-04-27T23:28:04.116Z,99.90
2019-04-27T23:30:47.421Z,99.90
2019-04-27T23:33:17.709Z,99.90
2019-04-27T23:35:48.116Z,99.90
2019-04-27T23:38:20.570Z,99.90
2019-04-27T23:40:51.753Z,99.90
2019-04-27T23:43:23.082Z,99.90
2019-04-27T23:45:53.673Z,99.90
2019-04-27T23:48:25.044Z,99.90
2019-04-27T23:51:00.260Z,99.90
2019-04-27T23:53:32.298Z,99.90
2019-04-27T23:56:02.490Z,99.90
2019-04-27T23:58:32.920Z,99.90
